sensor_id;sensor_type;location;lat;lon;timestamp;P1;durP1;ratioP1;P2;durP2;ratioP2
13349;SDS011;6744;53.190;6.576;2022-08-11T00:01:27;3.80;;;3.47;;
13349;SDS011;6744;53.190;6.576;2022-08-11T00:03:53;4.10;;;3.73;;
13349;SDS011;6744;53.190;6.576;2022-08-11T00:06:28;4.30;;;3.90;;
13349;SDS011;6744;53.190;6.576;2022-08-11T00:08:54;3.87;;;3.10;;
13349;SDS011;6744;53.190;6.576;2022-08-11T00:11:21;5.50;;;3.40;;
13349;SDS011;6744;53.190;6.576;2022-08-11T00:14:04;3.83;;;3.40;;
13349;SDS011;6744;53.190;6.576;2022-08-11T00:16:38;4.60;;;3.63;;
13349;SDS011;6744;53.190;6.576;2022-08-11T00:19:04;3.93;;;3.63;;
13349;SDS011;6744;53.190;6.576;2022-08-11T00:21:30;4.00;;;3.50;;
13349;SDS011;6744;53.190;6.576;2022-08-11T00:23:59;4.00;;;3.60;;
13349;SDS011;6744;53.190;6.576;2022-08-11T00:26:25;4.03;;;3.63;;
13349;SDS011;6744;53.190;6.576;2022-08-11T00:28:53;4.13;;;3.73;;
13349;SDS011;6744;53.190;6.576;2022-08-11T00:31:21;4.37;;;3.97;;
13349;SDS011;6744;53.190;6.576;2022-08-11T00:33:48;4.13;;;3.80;;
13349;SDS011;6744;53.190;6.576;2022-08-11T00:36:16;4.13;;;3.83;;
13349;SDS011;6744;53.190;6.576;2022-08-11T00:38:42;5.70;;;4.97;;
13349;SDS011;6744;53.190;6.576;2022-08-11T00:41:19;4.97;;;4.47;;
13349;SDS011;6744;53.190;6.576;2022-08-11T00:44:03;5.57;;;4.67;;
13349;SDS011;6744;53.190;6.576;2022-08-11T00:52:07;5.33;;;4.57;;
13349;SDS011;6744;53.190;6.576;2022-08-11T01:12:04;5.47;;;4.93;;
13349;SDS011;6744;53.190;6.576;2022-08-11T01:15:13;5.20;;;4.70;;
13349;SDS011;6744;53.190;6.576;2022-08-11T01:20:49;5.73;;;5.20;;
13349;SDS011;6744;53.190;6.576;2022-08-11T01:23:21;6.60;;;5.10;;
13349;SDS011;6744;53.190;6.576;2022-08-11T01:40:39;7.47;;;6.47;;
13349;SDS011;6744;53.190;6.576;2022-08-11T01:46:12;6.10;;;5.47;;
13349;SDS011;6744;53.190;6.576;2022-08-11T01:54:09;5.10;;;4.60;;
13349;SDS011;6744;53.190;6.576;2022-08-11T01:59:48;5.90;;;5.40;;
13349;SDS011;6744;53.190;6.576;2022-08-11T02:10:33;5.93;;;5.33;;
13349;SDS011;6744;53.190;6.576;2022-08-11T02:16:02;5.27;;;4.77;;
13349;SDS011;6744;53.190;6.576;2022-08-11T02:18:33;5.93;;;5.43;;
13349;SDS011;6744;53.190;6.576;2022-08-11T02:21:26;5.70;;;5.20;;
13349;SDS011;6744;53.190;6.576;2022-08-11T02:24:22;6.13;;;5.57;;
13349;SDS011;6744;53.190;6.576;2022-08-11T02:27:01;6.73;;;6.07;;
13349;SDS011;6744;53.190;6.576;2022-08-11T02:29:32;6.70;;;6.10;;
13349;SDS011;6744;53.190;6.576;2022-08-11T02:32:46;6.60;;;6.00;;
13349;SDS011;6744;53.190;6.576;2022-08-11T02:41:27;6.23;;;5.73;;
13349;SDS011;6744;53.190;6.576;2022-08-11T02:50:32;6.90;;;6.30;;
13349;SDS011;6744;53.190;6.576;2022-08-11T02:53:05;6.40;;;5.80;;
13349;SDS011;6744;53.190;6.576;2022-08-11T02:55:58;6.73;;;6.13;;
13349;SDS011;6744;53.190;6.576;2022-08-11T02:58:51;7.10;;;6.40;;
13349;SDS011;6744;53.190;6.576;2022-08-11T03:01:51;7.30;;;6.60;;
13349;SDS011;6744;53.190;6.576;2022-08-11T03:04:22;7.30;;;6.60;;
13349;SDS011;6744;53.190;6.576;2022-08-11T03:07:05;7.47;;;6.87;;
13349;SDS011;6744;53.190;6.576;2022-08-11T03:15:18;6.43;;;5.93;;
13349;SDS011;6744;53.190;6.576;2022-08-11T03:23:36;6.87;;;6.23;;
13349;SDS011;6744;53.190;6.576;2022-08-11T03:28:42;7.00;;;6.23;;
13349;SDS011;6744;53.190;6.576;2022-08-11T03:31:26;6.70;;;5.93;;
13349;SDS011;6744;53.190;6.576;2022-08-11T03:33:57;7.60;;;6.87;;
13349;SDS011;6744;53.190;6.576;2022-08-11T03:45:26;6.63;;;6.03;;
13349;SDS011;6744;53.190;6.576;2022-08-11T03:56:24;6.60;;;6.00;;
13349;SDS011;6744;53.190;6.576;2022-08-11T04:27:08;7.97;;;7.27;;
13349;SDS011;6744;53.190;6.576;2022-08-11T04:32:54;7.47;;;6.80;;
13349;SDS011;6744;53.190;6.576;2022-08-11T04:38:07;8.00;;;7.30;;
13349;SDS011;6744;53.190;6.576;2022-08-11T04:46:59;8.10;;;7.40;;
13349;SDS011;6744;53.190;6.576;2022-08-11T04:50:14;8.47;;;7.67;;
13349;SDS011;6744;53.190;6.576;2022-08-11T04:53:09;9.83;;;8.93;;
13349;SDS011;6744;53.190;6.576;2022-08-11T04:56:15;10.10;;;9.20;;
13349;SDS011;6744;53.190;6.576;2022-08-11T04:59:19;9.00;;;8.20;;
13349;SDS011;6744;53.190;6.576;2022-08-11T05:13:00;9.20;;;8.30;;
13349;SDS011;6744;53.190;6.576;2022-08-11T05:15:48;9.87;;;8.97;;
13349;SDS011;6744;53.190;6.576;2022-08-11T05:18:34;10.27;;;9.33;;
13349;SDS011;6744;53.190;6.576;2022-08-11T05:21:23;8.97;;;8.17;;
13349;SDS011;6744;53.190;6.576;2022-08-11T05:24:16;8.67;;;7.97;;
13349;SDS011;6744;53.190;6.576;2022-08-11T05:27:04;6.70;;;6.10;;
13349;SDS011;6744;53.190;6.576;2022-08-11T05:30:03;7.93;;;7.13;;
13349;SDS011;6744;53.190;6.576;2022-08-11T05:32:56;8.03;;;7.33;;
13349;SDS011;6744;53.190;6.576;2022-08-11T05:35:43;7.97;;;7.17;;
13349;SDS011;6744;53.190;6.576;2022-08-11T05:38:15;6.83;;;6.23;;
13349;SDS011;6744;53.190;6.576;2022-08-11T05:41:01;7.23;;;6.53;;
13349;SDS011;6744;53.190;6.576;2022-08-11T05:43:45;6.67;;;6.07;;
13349;SDS011;6744;53.190;6.576;2022-08-11T05:46:30;8.03;;;7.23;;
13349;SDS011;6744;53.190;6.576;2022-08-11T05:49:25;8.87;;;7.60;;
13349;SDS011;6744;53.190;6.576;2022-08-11T05:52:16;9.20;;;8.40;;
13349;SDS011;6744;53.190;6.576;2022-08-11T05:55:05;7.40;;;6.70;;
13349;SDS011;6744;53.190;6.576;2022-08-11T05:57:53;6.93;;;6.27;;
13349;SDS011;6744;53.190;6.576;2022-08-11T06:00:20;7.53;;;6.83;;
13349;SDS011;6744;53.190;6.576;2022-08-11T06:02:58;7.80;;;7.07;;
13349;SDS011;6744;53.190;6.576;2022-08-11T06:05:35;8.47;;;7.67;;
13349;SDS011;6744;53.190;6.576;2022-08-11T06:08:02;8.30;;;7.60;;
13349;SDS011;6744;53.190;6.576;2022-08-11T06:10:38;7.67;;;6.97;;
13349;SDS011;6744;53.190;6.576;2022-08-11T06:13:05;7.57;;;6.87;;
13349;SDS011;6744;53.190;6.576;2022-08-11T06:15:32;8.23;;;7.43;;
13349;SDS011;6744;53.190;6.576;2022-08-11T06:17:59;7.90;;;7.30;;
13349;SDS011;6744;53.190;6.576;2022-08-11T06:20:26;9.00;;;8.20;;
13349;SDS011;6744;53.190;6.576;2022-08-11T06:23:04;7.83;;;7.03;;
13349;SDS011;6744;53.190;6.576;2022-08-11T06:25:32;8.17;;;6.30;;
13349;SDS011;6744;53.190;6.576;2022-08-11T06:27:59;7.77;;;6.90;;
13349;SDS011;6744;53.190;6.576;2022-08-11T06:30:34;7.77;;;6.63;;
13349;SDS011;6744;53.190;6.576;2022-08-11T06:33:05;7.83;;;7.07;;
13349;SDS011;6744;53.190;6.576;2022-08-11T06:35:46;7.70;;;6.90;;
13349;SDS011;6744;53.190;6.576;2022-08-11T06:38:22;7.07;;;6.03;;
13349;SDS011;6744;53.190;6.576;2022-08-11T06:40:53;9.30;;;7.73;;
13349;SDS011;6744;53.190;6.576;2022-08-11T06:43:48;7.47;;;6.23;;
13349;SDS011;6744;53.190;6.576;2022-08-11T06:46:27;6.73;;;5.70;;
13349;SDS011;6744;53.190;6.576;2022-08-11T06:48:54;7.93;;;6.50;;
13349;SDS011;6744;53.190;6.576;2022-08-11T06:51:20;6.73;;;6.23;;
13349;SDS011;6744;53.190;6.576;2022-08-11T06:53:46;7.80;;;6.80;;
13349;SDS011;6744;53.190;6.576;2022-08-11T06:56:13;7.80;;;7.00;;
13349;SDS011;6744;53.190;6.576;2022-08-11T06:58:59;7.47;;;6.10;;
13349;SDS011;6744;53.190;6.576;2022-08-11T07:01:59;7.53;;;6.73;;
13349;SDS011;6744;53.190;6.576;2022-08-11T07:13:09;7.10;;;5.80;;
13349;SDS011;6744;53.190;6.576;2022-08-11T07:15:53;6.37;;;5.77;;
13349;SDS011;6744;53.190;6.576;2022-08-11T07:18:27;6.93;;;5.90;;
13349;SDS011;6744;53.190;6.576;2022-08-11T07:21:22;7.43;;;5.63;;
13349;SDS011;6744;53.190;6.576;2022-08-11T07:24:20;6.37;;;5.00;;
13349;SDS011;6744;53.190;6.576;2022-08-11T07:27:09;6.53;;;5.17;;
13349;SDS011;6744;53.190;6.576;2022-08-11T07:29:57;5.03;;;4.63;;
13349;SDS011;6744;53.190;6.576;2022-08-11T07:32:31;6.37;;;5.00;;
13349;SDS011;6744;53.190;6.576;2022-08-11T07:35:14;5.63;;;5.07;;
13349;SDS011;6744;53.190;6.576;2022-08-11T07:37:42;6.47;;;4.80;;
13349;SDS011;6744;53.190;6.576;2022-08-11T07:40:11;6.00;;;4.60;;
13349;SDS011;6744;53.190;6.576;2022-08-11T07:42:37;6.03;;;4.90;;
13349;SDS011;6744;53.190;6.576;2022-08-11T07:45:04;5.03;;;4.20;;
13349;SDS011;6744;53.190;6.576;2022-08-11T07:47:49;4.93;;;4.10;;
13349;SDS011;6744;53.190;6.576;2022-08-11T07:50:38;4.33;;;4.03;;
13349;SDS011;6744;53.190;6.576;2022-08-11T07:53:23;7.23;;;4.30;;
13349;SDS011;6744;53.190;6.576;2022-08-11T07:55:49;5.20;;;4.20;;
13349;SDS011;6744;53.190;6.576;2022-08-11T07:58:15;5.30;;;3.50;;
13349;SDS011;6744;53.190;6.576;2022-08-11T08:00:59;4.80;;;3.80;;
13349;SDS011;6744;53.190;6.576;2022-08-11T08:03:44;6.20;;;4.13;;
13349;SDS011;6744;53.190;6.576;2022-08-11T08:06:28;4.23;;;3.77;;
13349;SDS011;6744;53.190;6.576;2022-08-11T08:09:16;4.40;;;3.07;;
13349;SDS011;6744;53.190;6.576;2022-08-11T08:12:02;3.70;;;3.07;;
13349;SDS011;6744;53.190;6.576;2022-08-11T08:14:46;4.27;;;3.20;;
13349;SDS011;6744;53.190;6.576;2022-08-11T08:17:31;3.43;;;3.13;;
13349;SDS011;6744;53.190;6.576;2022-08-11T08:20:15;4.37;;;3.10;;
13349;SDS011;6744;53.190;6.576;2022-08-11T08:22:44;3.83;;;3.13;;
13349;SDS011;6744;53.190;6.576;2022-08-11T08:25:11;2.80;;;2.60;;
13349;SDS011;6744;53.190;6.576;2022-08-11T08:27:37;3.33;;;2.83;;
13349;SDS011;6744;53.190;6.576;2022-08-11T08:30:03;4.40;;;3.00;;
13349;SDS011;6744;53.190;6.576;2022-08-11T08:32:50;2.77;;;2.57;;
13349;SDS011;6744;53.190;6.576;2022-08-11T08:35:15;2.90;;;2.33;;
13349;SDS011;6744;53.190;6.576;2022-08-11T08:37:41;5.70;;;2.80;;
13349;SDS011;6744;53.190;6.576;2022-08-11T08:40:07;4.23;;;2.77;;
13349;SDS011;6744;53.190;6.576;2022-08-11T08:42:47;4.77;;;3.07;;
13349;SDS011;6744;53.190;6.576;2022-08-11T08:45:18;6.87;;;2.50;;
13349;SDS011;6744;53.190;6.576;2022-08-11T08:47:45;2.83;;;2.17;;
13349;SDS011;6744;53.190;6.576;2022-08-11T08:50:13;2.20;;;2.10;;
13349;SDS011;6744;53.190;6.576;2022-08-11T08:52:49;2.37;;;1.90;;
13349;SDS011;6744;53.190;6.576;2022-08-11T08:55:17;3.50;;;1.80;;
13349;SDS011;6744;53.190;6.576;2022-08-11T08:57:44;3.40;;;1.67;;
13349;SDS011;6744;53.190;6.576;2022-08-11T09:00:10;4.43;;;1.87;;
13349;SDS011;6744;53.190;6.576;2022-08-11T09:02:38;1.73;;;1.53;;
13349;SDS011;6744;53.190;6.576;2022-08-11T09:05:04;3.67;;;1.63;;
13349;SDS011;6744;53.190;6.576;2022-08-11T09:07:31;2.17;;;1.57;;
13349;SDS011;6744;53.190;6.576;2022-08-11T09:09:58;3.87;;;1.77;;
13349;SDS011;6744;53.190;6.576;2022-08-11T09:12:28;1.83;;;1.53;;
13349;SDS011;6744;53.190;6.576;2022-08-11T09:14:54;3.07;;;1.60;;
13349;SDS011;6744;53.190;6.576;2022-08-11T09:20:18;2.03;;;1.30;;
13349;SDS011;6744;53.190;6.576;2022-08-11T09:22:54;2.27;;;1.33;;
13349;SDS011;6744;53.190;6.576;2022-08-11T09:25:39;2.23;;;1.47;;
13349;SDS011;6744;53.190;6.576;2022-08-11T09:28:23;1.47;;;1.37;;
13349;SDS011;6744;53.190;6.576;2022-08-11T09:30:53;2.23;;;1.30;;
13349;SDS011;6744;53.190;6.576;2022-08-11T09:33:20;3.33;;;1.70;;
13349;SDS011;6744;53.190;6.576;2022-08-11T09:35:47;3.23;;;1.60;;
13349;SDS011;6744;53.190;6.576;2022-08-11T09:38:14;2.67;;;1.77;;
13349;SDS011;6744;53.190;6.576;2022-08-11T09:41:04;2.27;;;1.37;;
13349;SDS011;6744;53.190;6.576;2022-08-11T09:43:32;3.30;;;1.50;;
13349;SDS011;6744;53.190;6.576;2022-08-11T09:46:26;2.00;;;1.53;;
13349;SDS011;6744;53.190;6.576;2022-08-11T09:48:53;1.70;;;1.60;;
13349;SDS011;6744;53.190;6.576;2022-08-11T09:51:21;2.07;;;1.57;;
13349;SDS011;6744;53.190;6.576;2022-08-11T09:53:47;3.00;;;1.23;;
13349;SDS011;6744;53.190;6.576;2022-08-11T09:56:17;2.77;;;1.47;;
13349;SDS011;6744;53.190;6.576;2022-08-11T09:59:03;2.70;;;1.57;;
13349;SDS011;6744;53.190;6.576;2022-08-11T10:01:30;1.87;;;1.50;;
13349;SDS011;6744;53.190;6.576;2022-08-11T10:04:18;2.67;;;1.40;;
13349;SDS011;6744;53.190;6.576;2022-08-11T10:06:51;3.13;;;1.50;;
13349;SDS011;6744;53.190;6.576;2022-08-11T10:09:27;2.33;;;1.33;;
13349;SDS011;6744;53.190;6.576;2022-08-11T10:11:55;1.67;;;1.20;;
13349;SDS011;6744;53.190;6.576;2022-08-11T10:14:22;2.33;;;1.33;;
13349;SDS011;6744;53.190;6.576;2022-08-11T10:17:07;1.97;;;1.33;;
13349;SDS011;6744;53.190;6.576;2022-08-11T10:19:36;3.13;;;1.40;;
13349;SDS011;6744;53.190;6.576;2022-08-11T10:22:02;2.63;;;1.37;;
13349;SDS011;6744;53.190;6.576;2022-08-11T10:24:47;2.80;;;1.17;;
13349;SDS011;6744;53.190;6.576;2022-08-11T10:27:31;3.47;;;1.70;;
13349;SDS011;6744;53.190;6.576;2022-08-11T10:29:56;1.60;;;1.10;;
13349;SDS011;6744;53.190;6.576;2022-08-11T10:32:42;1.93;;;1.17;;
13349;SDS011;6744;53.190;6.576;2022-08-11T10:35:27;1.43;;;1.20;;
13349;SDS011;6744;53.190;6.576;2022-08-11T10:37:54;2.23;;;1.40;;
13349;SDS011;6744;53.190;6.576;2022-08-11T10:40:20;3.07;;;1.20;;
13349;SDS011;6744;53.190;6.576;2022-08-11T10:42:46;1.60;;;1.33;;
13349;SDS011;6744;53.190;6.576;2022-08-11T11:14:42;2.10;;;1.40;;
13349;SDS011;6744;53.190;6.576;2022-08-11T11:20:01;1.53;;;1.30;;
13349;SDS011;6744;53.190;6.576;2022-08-11T11:22:28;2.73;;;1.10;;
13349;SDS011;6744;53.190;6.576;2022-08-11T11:30:07;1.60;;;1.30;;
13349;SDS011;6744;53.190;6.576;2022-08-11T11:35:10;1.37;;;1.10;;
13349;SDS011;6744;53.190;6.576;2022-08-11T11:37:43;1.93;;;1.30;;
13349;SDS011;6744;53.190;6.576;2022-08-11T11:40:14;2.60;;;1.27;;
13349;SDS011;6744;53.190;6.576;2022-08-11T11:42:45;1.63;;;1.20;;
13349;SDS011;6744;53.190;6.576;2022-08-11T11:45:14;2.20;;;1.20;;
13349;SDS011;6744;53.190;6.576;2022-08-11T11:47:41;2.83;;;1.20;;
13349;SDS011;6744;53.190;6.576;2022-08-11T11:50:08;1.70;;;1.20;;
13349;SDS011;6744;53.190;6.576;2022-08-11T11:52:34;1.63;;;1.10;;
13349;SDS011;6744;53.190;6.576;2022-08-11T11:55:00;2.50;;;1.30;;
13349;SDS011;6744;53.190;6.576;2022-08-11T11:57:26;1.77;;;1.27;;
13349;SDS011;6744;53.190;6.576;2022-08-11T12:00:11;2.83;;;1.20;;
13349;SDS011;6744;53.190;6.576;2022-08-11T12:02:56;1.47;;;1.30;;
13349;SDS011;6744;53.190;6.576;2022-08-11T12:05:24;2.20;;;1.47;;
13349;SDS011;6744;53.190;6.576;2022-08-11T12:07:51;1.90;;;1.40;;
13349;SDS011;6744;53.190;6.576;2022-08-11T12:10:36;2.07;;;1.27;;
13349;SDS011;6744;53.190;6.576;2022-08-11T12:13:03;1.63;;;1.13;;
13349;SDS011;6744;53.190;6.576;2022-08-11T12:15:47;2.13;;;1.40;;
13349;SDS011;6744;53.190;6.576;2022-08-11T12:18:13;2.03;;;1.20;;
13349;SDS011;6744;53.190;6.576;2022-08-11T12:20:39;1.87;;;1.23;;
13349;SDS011;6744;53.190;6.576;2022-08-11T12:23:05;1.70;;;1.20;;
13349;SDS011;6744;53.190;6.576;2022-08-11T12:25:49;1.20;;;1.10;;
13349;SDS011;6744;53.190;6.576;2022-08-11T12:28:32;2.17;;;1.30;;
13349;SDS011;6744;53.190;6.576;2022-08-11T12:30:58;1.37;;;1.27;;
13349;SDS011;6744;53.190;6.576;2022-08-11T12:33:23;1.70;;;1.50;;
13349;SDS011;6744;53.190;6.576;2022-08-11T12:35:51;1.63;;;1.30;;
13349;SDS011;6744;53.190;6.576;2022-08-11T12:38:20;1.50;;;1.40;;
13349;SDS011;6744;53.190;6.576;2022-08-11T12:40:47;2.00;;;1.50;;
13349;SDS011;6744;53.190;6.576;2022-08-11T12:43:31;1.80;;;1.57;;
13349;SDS011;6744;53.190;6.576;2022-08-11T12:46:20;1.53;;;1.40;;
13349;SDS011;6744;53.190;6.576;2022-08-11T12:48:48;1.40;;;1.30;;
13349;SDS011;6744;53.190;6.576;2022-08-11T12:51:35;1.70;;;1.40;;
13349;SDS011;6744;53.190;6.576;2022-08-11T12:56:57;1.93;;;1.47;;
13349;SDS011;6744;53.190;6.576;2022-08-11T12:59:43;3.00;;;1.53;;
13349;SDS011;6744;53.190;6.576;2022-08-11T13:02:28;2.70;;;1.20;;
13349;SDS011;6744;53.190;6.576;2022-08-11T13:05:13;2.97;;;1.33;;
13349;SDS011;6744;53.190;6.576;2022-08-11T13:07:41;1.67;;;1.20;;
13349;SDS011;6744;53.190;6.576;2022-08-11T13:10:07;1.20;;;1.10;;
13349;SDS011;6744;53.190;6.576;2022-08-11T13:12:34;2.53;;;1.20;;
13349;SDS011;6744;53.190;6.576;2022-08-11T13:15:13;1.23;;;1.10;;
13349;SDS011;6744;53.190;6.576;2022-08-11T13:17:40;3.20;;;1.17;;
13349;SDS011;6744;53.190;6.576;2022-08-11T13:20:09;2.77;;;1.10;;
13349;SDS011;6744;53.190;6.576;2022-08-11T13:22:37;1.57;;;1.30;;
13349;SDS011;6744;53.190;6.576;2022-08-11T13:25:04;2.50;;;1.33;;
13349;SDS011;6744;53.190;6.576;2022-08-11T13:27:30;2.60;;;1.30;;
13349;SDS011;6744;53.190;6.576;2022-08-11T13:29:56;2.23;;;1.30;;
13349;SDS011;6744;53.190;6.576;2022-08-11T13:32:40;1.77;;;1.30;;
13349;SDS011;6744;53.190;6.576;2022-08-11T13:35:06;1.33;;;1.10;;
13349;SDS011;6744;53.190;6.576;2022-08-11T13:37:32;3.90;;;1.40;;
13349;SDS011;6744;53.190;6.576;2022-08-11T13:39:59;1.83;;;1.20;;
13349;SDS011;6744;53.190;6.576;2022-08-11T13:42:25;1.13;;;1.10;;
13349;SDS011;6744;53.190;6.576;2022-08-11T13:44:52;2.67;;;1.40;;
13349;SDS011;6744;53.190;6.576;2022-08-11T13:47:17;2.40;;;1.37;;
13349;SDS011;6744;53.190;6.576;2022-08-11T13:49:46;2.90;;;0.97;;
13349;SDS011;6744;53.190;6.576;2022-08-11T13:52:12;1.87;;;1.30;;
13349;SDS011;6744;53.190;6.576;2022-08-11T13:54:39;2.60;;;1.10;;
13349;SDS011;6744;53.190;6.576;2022-08-11T13:57:06;2.10;;;1.50;;
13349;SDS011;6744;53.190;6.576;2022-08-11T13:59:33;2.83;;;1.27;;
13349;SDS011;6744;53.190;6.576;2022-08-11T14:02:04;2.30;;;1.13;;
13349;SDS011;6744;53.190;6.576;2022-08-11T14:04:34;1.43;;;1.13;;
13349;SDS011;6744;53.190;6.576;2022-08-11T14:07:13;2.40;;;1.20;;
13349;SDS011;6744;53.190;6.576;2022-08-11T14:09:43;1.60;;;1.20;;
13349;SDS011;6744;53.190;6.576;2022-08-11T14:12:31;1.40;;;1.30;;
13349;SDS011;6744;53.190;6.576;2022-08-11T14:15:28;3.93;;;1.13;;
13349;SDS011;6744;53.190;6.576;2022-08-11T14:17:58;1.70;;;1.20;;
13349;SDS011;6744;53.190;6.576;2022-08-11T14:20:30;1.57;;;1.17;;
13349;SDS011;6744;53.190;6.576;2022-08-11T14:23:15;3.50;;;1.37;;
13349;SDS011;6744;53.190;6.576;2022-08-11T14:25:40;3.03;;;1.30;;
13349;SDS011;6744;53.190;6.576;2022-08-11T14:28:26;2.63;;;1.30;;
13349;SDS011;6744;53.190;6.576;2022-08-11T14:30:52;2.47;;;1.30;;
13349;SDS011;6744;53.190;6.576;2022-08-11T14:33:20;3.00;;;1.43;;
13349;SDS011;6744;53.190;6.576;2022-08-11T14:35:46;2.50;;;1.10;;
13349;SDS011;6744;53.190;6.576;2022-08-11T14:38:11;1.27;;;1.03;;
13349;SDS011;6744;53.190;6.576;2022-08-11T14:40:37;3.83;;;1.30;;
13349;SDS011;6744;53.190;6.576;2022-08-11T14:43:21;2.10;;;1.23;;
13349;SDS011;6744;53.190;6.576;2022-08-11T14:46:06;1.70;;;1.27;;
13349;SDS011;6744;53.190;6.576;2022-08-11T14:48:50;2.87;;;1.30;;
13349;SDS011;6744;53.190;6.576;2022-08-11T14:51:15;1.67;;;1.00;;
13349;SDS011;6744;53.190;6.576;2022-08-11T14:53:41;3.33;;;1.50;;
13349;SDS011;6744;53.190;6.576;2022-08-11T14:56:06;3.53;;;1.60;;
13349;SDS011;6744;53.190;6.576;2022-08-11T14:58:50;3.33;;;1.80;;
13349;SDS011;6744;53.190;6.576;2022-08-11T15:01:16;2.93;;;1.33;;
13349;SDS011;6744;53.190;6.576;2022-08-11T15:03:59;2.43;;;1.50;;
13349;SDS011;6744;53.190;6.576;2022-08-11T15:06:25;2.00;;;1.20;;
13349;SDS011;6744;53.190;6.576;2022-08-11T15:08:52;2.07;;;1.57;;
13349;SDS011;6744;53.190;6.576;2022-08-11T15:11:19;4.47;;;1.30;;
13349;SDS011;6744;53.190;6.576;2022-08-11T15:14:09;3.73;;;1.40;;
13349;SDS011;6744;53.190;6.576;2022-08-11T15:16:35;3.57;;;1.60;;
13349;SDS011;6744;53.190;6.576;2022-08-11T15:19:20;5.50;;;1.50;;
13349;SDS011;6744;53.190;6.576;2022-08-11T15:21:46;1.50;;;1.40;;
13349;SDS011;6744;53.190;6.576;2022-08-11T15:24:32;4.27;;;1.30;;
13349;SDS011;6744;53.190;6.576;2022-08-11T15:26:59;2.70;;;1.20;;
13349;SDS011;6744;53.190;6.576;2022-08-11T15:29:45;3.10;;;1.50;;
13349;SDS011;6744;53.190;6.576;2022-08-11T15:32:30;2.53;;;1.20;;
13349;SDS011;6744;53.190;6.576;2022-08-11T15:35:14;2.73;;;1.30;;
13349;SDS011;6744;53.190;6.576;2022-08-11T15:38:00;4.33;;;1.67;;
13349;SDS011;6744;53.190;6.576;2022-08-11T15:40:34;3.00;;;1.60;;
13349;SDS011;6744;53.190;6.576;2022-08-11T15:46:08;4.97;;;2.00;;
13349;SDS011;6744;53.190;6.576;2022-08-11T15:48:46;1.77;;;1.50;;
13349;SDS011;6744;53.190;6.576;2022-08-11T15:51:15;2.87;;;1.47;;
13349;SDS011;6744;53.190;6.576;2022-08-11T15:53:42;2.63;;;1.60;;
13349;SDS011;6744;53.190;6.576;2022-08-11T15:56:11;2.20;;;1.60;;
13349;SDS011;6744;53.190;6.576;2022-08-11T15:58:41;2.93;;;1.70;;
13349;SDS011;6744;53.190;6.576;2022-08-11T16:01:27;1.40;;;1.30;;
13349;SDS011;6744;53.190;6.576;2022-08-11T16:04:15;3.40;;;1.60;;
13349;SDS011;6744;53.190;6.576;2022-08-11T16:06:50;2.23;;;1.30;;
13349;SDS011;6744;53.190;6.576;2022-08-11T16:09:29;3.03;;;1.60;;
13349;SDS011;6744;53.190;6.576;2022-08-11T16:11:58;2.30;;;1.30;;
13349;SDS011;6744;53.190;6.576;2022-08-11T16:14:26;2.50;;;1.30;;
13349;SDS011;6744;53.190;6.576;2022-08-11T16:17:11;4.87;;;1.60;;
13349;SDS011;6744;53.190;6.576;2022-08-11T16:19:39;2.40;;;1.63;;
13349;SDS011;6744;53.190;6.576;2022-08-11T16:22:07;3.20;;;2.00;;
13349;SDS011;6744;53.190;6.576;2022-08-11T16:24:37;3.20;;;1.87;;
13349;SDS011;6744;53.190;6.576;2022-08-11T16:27:09;5.57;;;1.93;;
13349;SDS011;6744;53.190;6.576;2022-08-11T16:29:36;1.97;;;1.50;;
13349;SDS011;6744;53.190;6.576;2022-08-11T16:32:06;1.93;;;1.60;;
13349;SDS011;6744;53.190;6.576;2022-08-11T16:34:41;3.93;;;1.40;;
13349;SDS011;6744;53.190;6.576;2022-08-11T16:37:27;2.90;;;1.80;;
13349;SDS011;6744;53.190;6.576;2022-08-11T16:40:13;3.83;;;1.53;;
13349;SDS011;6744;53.190;6.576;2022-08-11T16:42:40;2.47;;;1.70;;
13349;SDS011;6744;53.190;6.576;2022-08-11T16:45:24;3.80;;;1.73;;
13349;SDS011;6744;53.190;6.576;2022-08-11T16:48:09;4.43;;;1.67;;
13349;SDS011;6744;53.190;6.576;2022-08-11T16:50:34;3.53;;;1.63;;
13349;SDS011;6744;53.190;6.576;2022-08-11T16:53:01;2.87;;;1.40;;
13349;SDS011;6744;53.190;6.576;2022-08-11T16:55:27;3.07;;;1.60;;
13349;SDS011;6744;53.190;6.576;2022-08-11T16:57:59;3.53;;;1.60;;
13349;SDS011;6744;53.190;6.576;2022-08-11T17:00:43;2.00;;;1.40;;
13349;SDS011;6744;53.190;6.576;2022-08-11T17:03:09;4.43;;;1.70;;
13349;SDS011;6744;53.190;6.576;2022-08-11T17:05:55;3.43;;;1.80;;
13349;SDS011;6744;53.190;6.576;2022-08-11T17:08:42;4.60;;;1.50;;
13349;SDS011;6744;53.190;6.576;2022-08-11T17:11:31;3.20;;;1.60;;
13349;SDS011;6744;53.190;6.576;2022-08-11T17:14:20;3.30;;;2.20;;
13349;SDS011;6744;53.190;6.576;2022-08-11T17:16:48;2.63;;;1.70;;
13349;SDS011;6744;53.190;6.576;2022-08-11T17:19:16;3.13;;;1.90;;
13349;SDS011;6744;53.190;6.576;2022-08-11T17:21:46;2.13;;;1.47;;
13349;SDS011;6744;53.190;6.576;2022-08-11T17:24:42;3.30;;;1.70;;
13349;SDS011;6744;53.190;6.576;2022-08-11T17:27:09;3.77;;;2.13;;
13349;SDS011;6744;53.190;6.576;2022-08-11T17:29:41;2.70;;;1.90;;
13349;SDS011;6744;53.190;6.576;2022-08-11T17:32:11;3.60;;;1.60;;
13349;SDS011;6744;53.190;6.576;2022-08-11T17:35:39;2.80;;;1.47;;
13349;SDS011;6744;53.190;6.576;2022-08-11T17:38:07;2.00;;;1.53;;
13349;SDS011;6744;53.190;6.576;2022-08-11T17:40:38;4.03;;;2.00;;
13349;SDS011;6744;53.190;6.576;2022-08-11T17:43:25;5.17;;;1.87;;
13349;SDS011;6744;53.190;6.576;2022-08-11T17:46:11;2.73;;;1.80;;
13349;SDS011;6744;53.190;6.576;2022-08-11T17:48:56;3.50;;;1.73;;
13349;SDS011;6744;53.190;6.576;2022-08-11T17:51:22;3.00;;;1.80;;
13349;SDS011;6744;53.190;6.576;2022-08-11T17:54:06;3.17;;;1.80;;
13349;SDS011;6744;53.190;6.576;2022-08-11T17:56:52;3.60;;;1.43;;
13349;SDS011;6744;53.190;6.576;2022-08-11T17:59:37;2.50;;;2.20;;
13349;SDS011;6744;53.190;6.576;2022-08-11T18:02:16;4.37;;;2.00;;
13349;SDS011;6744;53.190;6.576;2022-08-11T18:05:02;2.63;;;2.00;;
13349;SDS011;6744;53.190;6.576;2022-08-11T18:07:29;2.83;;;1.70;;
13349;SDS011;6744;53.190;6.576;2022-08-11T18:10:13;3.13;;;1.60;;
13349;SDS011;6744;53.190;6.576;2022-08-11T18:12:57;3.83;;;2.03;;
13349;SDS011;6744;53.190;6.576;2022-08-11T18:15:42;4.77;;;1.57;;
13349;SDS011;6744;53.190;6.576;2022-08-11T18:18:26;3.77;;;1.60;;
13349;SDS011;6744;53.190;6.576;2022-08-11T18:21:11;4.10;;;1.43;;
13349;SDS011;6744;53.190;6.576;2022-08-11T18:24:04;3.57;;;1.50;;
13349;SDS011;6744;53.190;6.576;2022-08-11T18:26:51;5.37;;;1.63;;
13349;SDS011;6744;53.190;6.576;2022-08-11T18:29:38;1.77;;;1.40;;
13349;SDS011;6744;53.190;6.576;2022-08-11T18:32:22;1.73;;;1.57;;
13349;SDS011;6744;53.190;6.576;2022-08-11T18:35:09;1.53;;;1.40;;
13349;SDS011;6744;53.190;6.576;2022-08-11T18:37:54;3.13;;;1.87;;
13349;SDS011;6744;53.190;6.576;2022-08-11T18:40:39;1.83;;;1.50;;
13349;SDS011;6744;53.190;6.576;2022-08-11T18:43:24;2.00;;;1.70;;
13349;SDS011;6744;53.190;6.576;2022-08-11T18:46:09;2.77;;;1.20;;
13349;SDS011;6744;53.190;6.576;2022-08-11T18:48:56;2.07;;;1.50;;
13349;SDS011;6744;53.190;6.576;2022-08-11T18:51:46;2.10;;;1.50;;
13349;SDS011;6744;53.190;6.576;2022-08-11T18:54:31;3.30;;;1.33;;
13349;SDS011;6744;53.190;6.576;2022-08-11T18:57:17;3.00;;;1.47;;
13349;SDS011;6744;53.190;6.576;2022-08-11T19:00:02;2.20;;;1.40;;
13349;SDS011;6744;53.190;6.576;2022-08-11T19:02:47;2.50;;;1.43;;
13349;SDS011;6744;53.190;6.576;2022-08-11T19:05:32;1.67;;;1.40;;
13349;SDS011;6744;53.190;6.576;2022-08-11T19:08:18;2.10;;;1.20;;
13349;SDS011;6744;53.190;6.576;2022-08-11T19:11:04;3.30;;;1.60;;
13349;SDS011;6744;53.190;6.576;2022-08-11T19:13:49;3.40;;;1.47;;
13349;SDS011;6744;53.190;6.576;2022-08-11T19:16:33;2.57;;;1.57;;
13349;SDS011;6744;53.190;6.576;2022-08-11T19:19:18;3.07;;;1.50;;
13349;SDS011;6744;53.190;6.576;2022-08-11T19:22:02;2.33;;;1.50;;
13349;SDS011;6744;53.190;6.576;2022-08-11T19:24:47;1.50;;;1.20;;
13349;SDS011;6744;53.190;6.576;2022-08-11T19:27:34;2.33;;;1.40;;
13349;SDS011;6744;53.190;6.576;2022-08-11T19:30:18;3.53;;;1.50;;
13349;SDS011;6744;53.190;6.576;2022-08-11T19:33:02;1.53;;;1.33;;